Time;durP1;ratioP1;P1;durP2;ratioP2;P2;SDS_P1;SDS_P2;PMS_P1;PMS_P2;Temp;Humidity;BMP_temperature;BMP_pressure;BME280_temperature;BME280_humidity;BME280_pressure;Samples;Min_cycle;Max_cycle;Signal;HPM_P1;HPM_P2
2022/03/29 00:01:56;;;;;;;40.28;25.42;;;;;;;;;;5096581;28;20230;-71
2022/03/29 00:04:25;;;;;;;36.92;25.35;;;;;;;;;;5096758;28;20224;-71
2022/03/29 00:06:53;;;;;;;38.55;25.30;;;;;;;;;;5097086;28;20195;-71
2022/03/29 00:09:20;;;;;;;35.60;23.92;;;;;;;;;;5097115;28;20613;-71
2022/03/29 00:11:47;;;;;;;33.17;24.38;;;;;;;;;;5096878;28;20203;-70
2022/03/29 00:14:15;;;;;;;36.50;24.75;;;;;;;;;;5096714;28;20202;-71
2022/03/29 00:16:42;;;;;;;38.25;25.35;;;;;;;;;;5097072;28;20196;-71
2022/03/29 00:19:09;;;;;;;37.22;24.20;;;;;;;;;;5096898;28;20201;-71
2022/03/29 00:21:38;;;;;;;34.70;23.92;;;;;;;;;;5096237;28;20195;-70
2022/03/29 00:24:05;;;;;;;34.90;23.02;;;;;;;;;;5096522;28;20291;-71
2022/03/29 00:26:33;;;;;;;35.65;24.73;;;;;;;;;;5096478;28;20195;-70
2022/03/29 00:29:00;;;;;;;34.70;24.52;;;;;;;;;;5096444;28;20201;-71
2022/03/29 00:31:27;;;;;;;35.63;26.10;;;;;;;;;;5096384;28;20198;-70
2022/03/29 00:33:54;;;;;;;34.88;23.77;;;;;;;;;;5096399;28;20200;-72
2022/03/29 00:36:21;;;;;;;35.40;23.70;;;;;;;;;;5096266;28;20190;-70
2022/03/29 00:38:50;;;;;;;32.63;23.45;;;;;;;;;;5096306;28;20192;-70
2022/03/29 00:41:17;;;;;;;34.67;23.38;;;;;;;;;;5095970;28;20191;-70
2022/03/29 00:43:44;;;;;;;32.85;24.42;;;;;;;;;;5095862;28;20218;-70
2022/03/29 00:46:12;;;;;;;32.33;24.23;;;;;;;;;;5095967;28;20230;-71
2022/03/29 00:48:39;;;;;;;36.38;23.60;;;;;;;;;;5096077;28;20192;-70
2022/03/29 00:51:07;;;;;;;37.22;25.67;;;;;;;;;;5096086;28;20199;-70
2022/03/29 00:53:34;;;;;;;37.97;24.88;;;;;;;;;;5095638;28;20287;-71
2022/03/29 00:56:03;;;;;;;33.45;24.83;;;;;;;;;;5095533;28;20203;-71
2022/03/29 00:58:30;;;;;;;34.90;23.75;;;;;;;;;;5095928;28;20221;-71
2022/03/29 01:01:01;;;;;;;37.10;23.70;;;;;;;;;;5095757;28;20203;-70
2022/03/29 01:03:28;;;;;;;33.20;21.63;;;;;;;;;;5095960;28;20677;-71
2022/03/29 01:05:55;;;;;;;39.17;26.77;;;;;;;;;;5095689;28;20207;-71
2022/03/29 01:08:24;;;;;;;37.20;24.83;;;;;;;;;;5095776;28;20198;-71
2022/03/29 01:10:51;;;;;;;42.95;27.83;;;;;;;;;;5095763;28;20199;-71
2022/03/29 01:13:20;;;;;;;41.88;26.67;;;;;;;;;;5095585;28;20194;-70
2022/03/29 01:15:49;;;;;;;42.75;28.30;;;;;;;;;;5095341;28;20190;-70
2022/03/29 01:18:18;;;;;;;39.90;27.27;;;;;;;;;;5095490;28;20205;-70
2022/03/29 01:20:46;;;;;;;43.00;26.52;;;;;;;;;;5095651;28;20293;-70
2022/03/29 01:23:15;;;;;;;43.10;27.60;;;;;;;;;;5095013;28;20687;-71
2022/03/29 01:25:44;;;;;;;42.38;26.88;;;;;;;;;;5094943;28;20197;-71
2022/03/29 01:28:12;;;;;;;43.55;28.27;;;;;;;;;;5095420;28;20190;-70
2022/03/29 01:30:39;;;;;;;42.45;27.60;;;;;;;;;;5095671;28;20210;-70
2022/03/29 01:33:08;;;;;;;43.03;25.42;;;;;;;;;;5094886;28;20198;-71
2022/03/29 01:35:35;;;;;;;39.50;26.83;;;;;;;;;;5095059;28;20236;-71
2022/03/29 01:38:03;;;;;;;41.75;27.13;;;;;;;;;;5094776;28;20202;-71
2022/03/29 01:40:31;;;;;;;43.38;28.02;;;;;;;;;;5094902;28;20195;-72
2022/03/29 01:42:59;;;;;;;46.60;27.65;;;;;;;;;;5094602;28;20683;-71
2022/03/29 01:45:28;;;;;;;43.15;26.95;;;;;;;;;;5094588;28;20238;-71
2022/03/29 01:47:55;;;;;;;45.55;29.42;;;;;;;;;;5095155;28;20195;-70
2022/03/29 01:50:23;;;;;;;48.33;28.50;;;;;;;;;;5094827;28;20198;-70
2022/03/29 01:52:50;;;;;;;42.78;26.48;;;;;;;;;;5094507;28;20238;-70
2022/03/29 01:55:19;;;;;;;43.88;27.70;;;;;;;;;;5094329;28;20195;-70
2022/03/29 01:57:48;;;;;;;38.80;25.25;;;;;;;;;;5094831;28;20194;-70
2022/03/29 02:00:31;;;;;;;43.25;26.98;;;;;;;;;;5094822;28;20202;-70
2022/03/29 02:02:59;;;;;;;45.10;26.08;;;;;;;;;;5094279;28;20295;-70
2022/03/29 02:05:26;;;;;;;38.63;25.85;;;;;;;;;;5094526;28;20193;-70
2022/03/29 02:07:53;;;;;;;38.90;26.30;;;;;;;;;;5094590;28;20623;-70
2022/03/29 02:10:21;;;;;;;38.13;26.08;;;;;;;;;;5094413;28;20195;-71
2022/03/29 02:12:50;;;;;;;41.03;28.02;;;;;;;;;;5094438;28;20203;-70
2022/03/29 02:15:17;;;;;;;41.67;27.48;;;;;;;;;;5094129;28;20275;-70
2022/03/29 02:17:45;;;;;;;41.70;26.10;;;;;;;;;;5094903;28;20201;-71
2022/03/29 02:20:13;;;;;;;42.30;26.33;;;;;;;;;;5094039;28;20674;-70
2022/03/29 02:22:41;;;;;;;38.55;25.42;;;;;;;;;;5093838;28;20693;-70
2022/03/29 02:25:10;;;;;;;39.58;26.60;;;;;;;;;;5094724;28;20206;-70
2022/03/29 02:27:38;;;;;;;40.92;26.92;;;;;;;;;;5093760;28;20201;-70
2022/03/29 02:30:07;;;;;;;37.83;26.63;;;;;;;;;;5094457;28;20266;-71
2022/03/29 02:32:34;;;;;;;44.70;28.60;;;;;;;;;;5094166;28;20207;-70
2022/03/29 02:35:01;;;;;;;41.90;24.70;;;;;;;;;;5094193;28;20564;-71
2022/03/29 02:37:29;;;;;;;40.08;26.55;;;;;;;;;;5094121;28;20191;-71
2022/03/29 02:39:56;;;;;;;43.08;27.02;;;;;;;;;;5094402;28;20195;-71
2022/03/29 02:42:23;;;;;;;41.00;27.73;;;;;;;;;;5093828;28;20197;-71
2022/03/29 02:44:50;;;;;;;44.28;27.95;;;;;;;;;;5093683;28;20290;-70
2022/03/29 02:47:20;;;;;;;45.50;28.05;;;;;;;;;;5094132;28;20199;-70
2022/03/29 02:49:47;;;;;;;43.60;27.83;;;;;;;;;;5093539;28;20195;-70
2022/03/29 02:52:14;;;;;;;39.35;26.00;;;;;;;;;;5093763;28;20252;-71
2022/03/29 02:54:42;;;;;;;45.88;28.85;;;;;;;;;;5093892;28;20266;-71
2022/03/29 02:57:10;;;;;;;45.15;28.80;;;;;;;;;;5093395;28;20230;-71
2022/03/29 02:59:37;;;;;;;44.92;27.48;;;;;;;;;;5093787;28;20200;-70
2022/03/29 03:02:05;;;;;;;41.28;26.63;;;;;;;;;;5094017;28;20203;-70
2022/03/29 03:04:34;;;;;;;47.95;29.23;;;;;;;;;;5093388;28;20221;-70
2022/03/29 03:07:01;;;;;;;50.17;29.17;;;;;;;;;;5093237;28;20192;-71
2022/03/29 03:09:29;;;;;;;43.55;26.52;;;;;;;;;;5093310;28;20196;-71
2022/03/29 03:11:56;;;;;;;48.55;29.00;;;;;;;;;;5093912;28;20222;-71
2022/03/29 03:14:23;;;;;;;44.08;29.58;;;;;;;;;;5093666;28;20203;-71
2022/03/29 03:16:50;;;;;;;45.28;29.48;;;;;;;;;;5093083;28;20191;-70
2022/03/29 03:19:18;;;;;;;49.33;30.15;;;;;;;;;;5093292;28;20198;-71
2022/03/29 03:21:47;;;;;;;50.88;30.45;;;;;;;;;;5093732;28;20290;-70
2022/03/29 03:24:15;;;;;;;50.53;29.67;;;;;;;;;;5093526;28;20224;-70
2022/03/29 03:26:42;;;;;;;48.28;31.23;;;;;;;;;;5093428;28;20191;-71
2022/03/29 03:29:09;;;;;;;45.28;28.17;;;;;;;;;;5093553;28;20202;-71
2022/03/29 03:31:36;;;;;;;44.85;26.60;;;;;;;;;;5093426;28;20208;-71
2022/03/29 03:34:03;;;;;;;54.08;31.58;;;;;;;;;;5093161;28;20665;-71
2022/03/29 03:36:31;;;;;;;61.65;30.23;;;;;;;;;;5093596;28;20221;-71
2022/03/29 03:38:59;;;;;;;54.10;30.45;;;;;;;;;;5093521;28;20199;-70
2022/03/29 03:41:26;;;;;;;52.70;31.10;;;;;;;;;;5093368;28;20200;-70
2022/03/29 03:43:54;;;;;;;56.72;30.73;;;;;;;;;;5093223;28;20305;-70
2022/03/29 03:46:21;;;;;;;50.78;29.98;;;;;;;;;;5093414;28;20224;-70
2022/03/29 03:48:48;;;;;;;47.58;28.77;;;;;;;;;;5093207;28;20218;-71
2022/03/29 03:51:15;;;;;;;52.55;28.63;;;;;;;;;;5093022;28;20200;-70
2022/03/29 03:53:44;;;;;;;52.78;31.38;;;;;;;;;;5093271;28;20215;-70
2022/03/29 03:56:12;;;;;;;56.67;31.60;;;;;;;;;;5093271;28;20194;-74
2022/03/29 03:58:39;;;;;;;51.88;31.42;;;;;;;;;;5093170;28;20278;-70
2022/03/29 04:01:11;;;;;;;53.50;30.15;;;;;;;;;;5093627;28;20321;-70
2022/03/29 04:03:38;;;;;;;58.70;32.65;;;;;;;;;;5093007;28;20212;-70
2022/03/29 04:06:06;;;;;;;52.95;32.35;;;;;;;;;;5092379;28;20199;-70
2022/03/29 04:08:33;;;;;;;47.33;29.83;;;;;;;;;;5092467;28;20212;-70
2022/03/29 04:11:00;;;;;;;61.72;32.53;;;;;;;;;;5092898;28;20198;-70
2022/03/29 04:13:29;;;;;;;56.70;30.60;;;;;;;;;;5092625;28;20235;-70
2022/03/29 04:15:56;;;;;;;52.83;29.60;;;;;;;;;;5092762;28;20234;-70
2022/03/29 04:18:23;;;;;;;45.05;27.23;;;;;;;;;;5094864;28;20297;-70
2022/03/29 04:20:51;;;;;;;50.25;30.88;;;;;;;;;;5096074;28;20205;-70
2022/03/29 04:23:18;;;;;;;52.17;29.00;;;;;;;;;;5095750;28;20752;-70
2022/03/29 04:25:45;;;;;;;53.88;29.50;;;;;;;;;;5095893;28;20199;-70
2022/03/29 04:28:13;;;;;;;46.97;29.77;;;;;;;;;;5096105;28;20195;-70
2022/03/29 04:30:41;;;;;;;53.33;31.33;;;;;;;;;;5096378;28;20247;-70
2022/03/29 04:33:09;;;;;;;52.13;30.67;;;;;;;;;;5095735;28;20647;-70
2022/03/29 04:35:36;;;;;;;54.42;30.60;;;;;;;;;;5095654;28;20196;-70
2022/03/29 04:38:03;;;;;;;48.00;29.58;;;;;;;;;;5096169;28;20206;-70
2022/03/29 04:40:31;;;;;;;52.03;29.98;;;;;;;;;;5096479;28;20196;-70
2022/03/29 04:43:00;;;;;;;48.88;30.45;;;;;;;;;;5096351;28;20279;-70
2022/03/29 04:45:27;;;;;;;53.72;32.20;;;;;;;;;;5095902;28;20235;-70
2022/03/29 04:47:56;;;;;;;51.97;30.17;;;;;;;;;;5096338;28;20190;-70
2022/03/29 04:50:23;;;;;;;46.13;28.00;;;;;;;;;;5095932;28;20277;-70
2022/03/29 04:52:51;;;;;;;51.08;29.92;;;;;;;;;;5095319;28;20195;-70
2022/03/29 04:55:18;;;;;;;52.72;30.80;;;;;;;;;;5095727;28;20289;-70
2022/03/29 04:57:47;;;;;;;56.40;34.13;;;;;;;;;;5095951;28;20627;-70
2022/03/29 05:00:16;;;;;;;52.58;30.90;;;;;;;;;;5095894;28;20552;-70
2022/03/29 05:02:44;;;;;;;50.28;31.13;;;;;;;;;;5096244;28;20561;-70
2022/03/29 05:05:13;;;;;;;49.35;29.52;;;;;;;;;;5095628;28;20262;-70
2022/03/29 05:07:41;;;;;;;52.35;30.40;;;;;;;;;;5095810;28;20274;-70
2022/03/29 05:10:09;;;;;;;55.35;32.90;;;;;;;;;;5095128;28;20204;-70
2022/03/29 05:12:39;;;;;;;52.78;29.13;;;;;;;;;;5095095;28;20665;-70
2022/03/29 05:15:07;;;;;;;53.33;31.85;;;;;;;;;;5094738;28;20201;-70
2022/03/29 05:17:35;;;;;;;58.92;30.83;;;;;;;;;;5095544;28;20205;-70
2022/03/29 05:20:03;;;;;;;56.00;30.95;;;;;;;;;;5095394;28;20621;-70
2022/03/29 05:22:31;;;;;;;57.17;31.38;;;;;;;;;;5095641;28;20195;-70
2022/03/29 05:24:58;;;;;;;55.85;32.28;;;;;;;;;;5095026;28;20221;-70
2022/03/29 05:27:26;;;;;;;46.53;27.35;;;;;;;;;;5095301;28;20225;-70
2022/03/29 05:29:54;;;;;;;48.50;30.95;;;;;;;;;;5094959;28;20227;-70
2022/03/29 05:32:21;;;;;;;53.03;32.00;;;;;;;;;;5095225;28;20243;-70
2022/03/29 05:34:48;;;;;;;58.90;32.00;;;;;;;;;;5095065;28;20198;-71
2022/03/29 05:37:15;;;;;;;64.53;31.52;;;;;;;;;;5095130;28;20193;-69
2022/03/29 05:39:44;;;;;;;58.63;30.42;;;;;;;;;;5094397;28;20200;-69
2022/03/29 05:42:11;;;;;;;55.50;30.73;;;;;;;;;;5094662;28;20195;-69
2022/03/29 05:44:39;;;;;;;50.97;31.50;;;;;;;;;;5095116;28;20306;-69
2022/03/29 05:49:51;;;;;;;46.95;29.27;;;;;;;;;;5094771;28;20181;-70
2022/03/29 05:52:21;;;;;;;50.00;30.80;;;;;;;;;;5094451;28;20195;-69
2022/03/29 05:54:49;;;;;;;45.08;28.13;;;;;;;;;;5094532;28;20647;-69
2022/03/29 05:57:17;;;;;;;45.30;29.77;;;;;;;;;;5094597;28;20219;-69
2022/03/29 05:59:45;;;;;;;44.00;28.40;;;;;;;;;;5094272;28;20680;-69
2022/03/29 06:02:12;;;;;;;42.95;27.40;;;;;;;;;;5094270;28;20657;-69
2022/03/29 06:04:40;;;;;;;42.72;28.40;;;;;;;;;;5094371;28;20215;-69
2022/03/29 06:07:08;;;;;;;45.38;28.05;;;;;;;;;;5094422;28;20206;-69
2022/03/29 06:09:36;;;;;;;44.00;26.58;;;;;;;;;;5094466;28;20203;-69
2022/03/29 06:12:05;;;;;;;44.85;26.95;;;;;;;;;;5094141;28;20191;-69
2022/03/29 06:14:32;;;;;;;43.40;26.95;;;;;;;;;;5094479;28;20203;-69
2022/03/29 06:17:00;;;;;;;39.60;25.27;;;;;;;;;;5094650;28;20656;-69
2022/03/29 06:19:27;;;;;;;40.35;24.70;;;;;;;;;;5093894;28;20246;-69
2022/03/29 06:21:55;;;;;;;37.72;24.75;;;;;;;;;;5094169;28;20207;-69
2022/03/29 06:24:22;;;;;;;39.83;24.73;;;;;;;;;;5093977;28;20241;-69
2022/03/29 06:26:49;;;;;;;28.05;18.98;;;;;;;;;;5093914;28;20201;-69
2022/03/29 06:29:18;;;;;;;34.20;21.45;;;;;;;;;;5093973;28;20202;-69
2022/03/29 06:31:45;;;;;;;30.67;21.15;;;;;;;;;;5094229;28;20199;-69
2022/03/29 06:34:13;;;;;;;35.42;22.02;;;;;;;;;;5094026;28;20204;-69
2022/03/29 06:36:41;;;;;;;38.20;21.98;;;;;;;;;;5094082;28;20222;-69
2022/03/29 06:39:11;;;;;;;37.67;23.75;;;;;;;;;;5093747;28;20195;-69
2022/03/29 06:41:39;;;;;;;35.05;21.42;;;;;;;;;;5093633;28;20644;-69
2022/03/29 06:44:08;;;;;;;39.78;23.80;;;;;;;;;;5093786;28;20286;-69
2022/03/29 06:46:37;;;;;;;38.28;24.08;;;;;;;;;;5094132;28;20230;-69
2022/03/29 06:49:06;;;;;;;40.97;22.15;;;;;;;;;;5093627;28;20194;-69
2022/03/29 06:51:33;;;;;;;43.13;24.70;;;;;;;;;;5093782;28;20248;-69
2022/03/29 06:54:00;;;;;;;37.97;25.85;;;;;;;;;;5093491;28;20238;-69
2022/03/29 06:56:28;;;;;;;39.10;24.30;;;;;;;;;;5093938;28;20666;-69
2022/03/29 06:58:56;;;;;;;44.63;25.88;;;;;;;;;;5093969;28;20199;-69
2022/03/29 07:01:23;;;;;;;40.90;25.15;;;;;;;;;;5093353;28;20648;-69
2022/03/29 07:03:52;;;;;;;43.08;26.60;;;;;;;;;;5094149;28;20327;-69
2022/03/29 07:06:19;;;;;;;42.90;24.35;;;;;;;;;;5093253;28;20663;-69
2022/03/29 07:11:28;;;;;;;43.08;23.35;;;;;;;;;;5093252;28;20183;-69
2022/03/29 07:13:55;;;;;;;42.47;24.98;;;;;;;;;;5093794;28;20191;-69
2022/03/29 07:16:22;;;;;;;42.53;22.02;;;;;;;;;;5093339;28;20197;-69
2022/03/29 07:18:50;;;;;;;41.10;23.98;;;;;;;;;;5093563;28;20225;-69
2022/03/29 07:21:19;;;;;;;39.42;26.70;;;;;;;;;;5093697;28;20345;-69
2022/03/29 07:23:46;;;;;;;44.88;25.20;;;;;;;;;;5093140;28;20289;-69
2022/03/29 07:26:13;;;;;;;37.30;24.33;;;;;;;;;;5093406;28;20216;-70
2022/03/29 07:28:41;;;;;;;49.40;25.95;;;;;;;;;;5093516;28;20200;-69
2022/03/29 07:31:08;;;;;;;43.08;26.05;;;;;;;;;;5093339;28;20207;-70
2022/03/29 07:33:35;;;;;;;38.08;24.02;;;;;;;;;;5093510;28;20195;-69
2022/03/29 07:36:03;;;;;;;40.95;22.95;;;;;;;;;;5093080;28;20679;-69
2022/03/29 07:38:32;;;;;;;44.63;25.90;;;;;;;;;;5093931;28;20244;-69
2022/03/29 07:40:59;;;;;;;40.72;22.85;;;;;;;;;;5093363;28;20194;-69
2022/03/29 07:43:26;;;;;;;40.00;24.55;;;;;;;;;;5094011;28;20196;-69
2022/03/29 07:45:55;;;;;;;34.63;23.05;;;;;;;;;;5092756;28;20261;-69
2022/03/29 07:48:22;;;;;;;40.13;26.77;;;;;;;;;;5093198;28;20279;-69
2022/03/29 07:50:50;;;;;;;46.17;27.17;;;;;;;;;;5093345;28;20241;-69
2022/03/29 07:53:17;;;;;;;41.75;25.80;;;;;;;;;;5097073;28;20601;-69
2022/03/29 07:55:46;;;;;;;39.40;25.90;;;;;;;;;;5097248;28;20200;-69
2022/03/29 07:58:13;;;;;;;45.33;24.55;;;;;;;;;;5097037;28;20204;-69
2022/03/29 08:00:41;;;;;;;37.33;26.00;;;;;;;;;;5097163;28;20190;-69
2022/03/29 08:03:08;;;;;;;40.00;25.15;;;;;;;;;;5096653;28;20601;-69
2022/03/29 08:05:36;;;;;;;43.13;24.65;;;;;;;;;;5096448;28;20220;-69
2022/03/29 08:08:04;;;;;;;43.17;24.58;;;;;;;;;;5097926;28;20203;-69
2022/03/29 08:10:32;;;;;;;44.03;24.98;;;;;;;;;;5096695;28;20200;-69
2022/03/29 08:13:02;;;;;;;41.88;25.20;;;;;;;;;;5096710;28;20226;-69
2022/03/29 08:15:29;;;;;;;44.22;25.23;;;;;;;;;;5096648;28;20231;-69
2022/03/29 08:17:57;;;;;;;44.65;26.05;;;;;;;;;;5096920;28;20200;-69
2022/03/29 08:20:24;;;;;;;42.22;23.83;;;;;;;;;;5096543;28;20239;-69
2022/03/29 08:22:53;;;;;;;43.30;25.88;;;;;;;;;;5096257;28;20681;-69
2022/03/29 08:25:21;;;;;;;41.10;26.50;;;;;;;;;;5096405;28;20223;-69
2022/03/29 08:27:49;;;;;;;36.60;23.23;;;;;;;;;;5096061;28;20315;-69
2022/03/29 08:30:18;;;;;;;40.88;25.38;;;;;;;;;;5096328;28;20191;-69
2022/03/29 08:32:46;;;;;;;42.45;24.88;;;;;;;;;;5096378;28;20198;-69
2022/03/29 08:35:13;;;;;;;35.20;23.58;;;;;;;;;;5096279;28;20200;-69
2022/03/29 08:37:40;;;;;;;39.72;23.75;;;;;;;;;;5096371;28;20208;-69
2022/03/29 08:40:11;;;;;;;34.65;23.73;;;;;;;;;;5096205;28;20240;-69
2022/03/29 08:42:38;;;;;;;34.38;22.98;;;;;;;;;;5095830;28;20191;-69
2022/03/29 08:45:07;;;;;;;39.53;24.25;;;;;;;;;;5095745;28;20239;-69
2022/03/29 08:47:36;;;;;;;39.75;23.73;;;;;;;;;;5096261;28;20193;-69
2022/03/29 08:50:04;;;;;;;34.70;24.15;;;;;;;;;;5096348;28;20206;-69
2022/03/29 08:52:32;;;;;;;41.42;23.52;;;;;;;;;;5095579;28;20207;-69
2022/03/29 08:54:59;;;;;;;32.80;22.40;;;;;;;;;;5095953;28;20555;-69
2022/03/29 08:57:27;;;;;;;38.38;23.73;;;;;;;;;;5095920;28;20553;-69
2022/03/29 08:59:54;;;;;;;40.10;24.88;;;;;;;;;;5095998;28;20198;-69
2022/03/29 09:02:21;;;;;;;39.38;24.70;;;;;;;;;;5095219;28;20203;-69
2022/03/29 09:05:03;;;;;;;34.40;24.05;;;;;;;;;;5095291;28;20215;-69
2022/03/29 09:07:46;;;;;;;39.97;25.35;;;;;;;;;;5095490;28;20228;-68
2022/03/29 09:10:14;;;;;;;39.70;25.25;;;;;;;;;;5095897;28;20226;-68
2022/03/29 09:12:41;;;;;;;38.03;24.25;;;;;;;;;;5095547;28;20191;-68
2022/03/29 09:15:14;;;;;;;40.75;24.42;;;;;;;;;;5095897;28;20196;-68
2022/03/29 09:17:42;;;;;;;36.05;24.20;;;;;;;;;;5095516;28;20642;-68
2022/03/29 09:20:11;;;;;;;41.72;23.25;;;;;;;;;;5095134;28;20294;-68
2022/03/29 09:22:42;;;;;;;38.10;22.75;;;;;;;;;;5095288;28;20197;-68
2022/03/29 09:25:10;;;;;;;38.03;22.73;;;;;;;;;;5095446;28;20219;-68
2022/03/29 09:27:50;;;;;;;40.47;24.10;;;;;;;;;;5094906;28;20204;-68
2022/03/29 09:30:17;;;;;;;44.05;23.88;;;;;;;;;;5094934;28;20221;-70
2022/03/29 09:33:00;;;;;;;41.55;26.80;;;;;;;;;;5094879;28;20198;-68
2022/03/29 09:35:28;;;;;;;39.20;24.17;;;;;;;;;;5095156;28;20183;-68
2022/03/29 09:37:56;;;;;;;37.40;24.50;;;;;;;;;;5094926;28;20201;-70
2022/03/29 09:40:33;;;;;;;40.92;24.05;;;;;;;;;;5095194;28;20666;-70
2022/03/29 09:43:00;;;;;;;39.50;24.27;;;;;;;;;;5095233;28;20188;-70
2022/03/29 09:45:48;;;;;;;41.78;24.60;;;;;;;;;;5094895;28;20650;-70
2022/03/29 09:48:28;;;;;;;35.63;23.30;;;;;;;;;;5094833;28;20191;-70
2022/03/29 09:50:57;;;;;;;44.88;23.42;;;;;;;;;;5094548;28;20287;-70
2022/03/29 09:53:39;;;;;;;40.85;24.17;;;;;;;;;;5094460;28;20385;-70
2022/03/29 09:56:07;;;;;;;41.55;25.20;;;;;;;;;;5094825;28;20201;-70
2022/03/29 09:58:34;;;;;;;38.33;24.83;;;;;;;;;;5094649;28;20196;-70
2022/03/29 10:01:01;;;;;;;35.72;24.13;;;;;;;;;;5094684;28;20288;-70
2022/03/29 10:03:29;;;;;;;45.70;25.48;;;;;;;;;;5094495;28;20200;-68
2022/03/29 10:06:01;;;;;;;39.20;25.77;;;;;;;;;;5094243;28;20216;-70
2022/03/29 10:11:15;;;;;;;43.37;26.73;;;;;;;;;;5094415;28;20230;-70
2022/03/29 10:13:43;;;;;;;33.72;22.50;;;;;;;;;;5094457;28;20473;-70
2022/03/29 10:16:13;;;;;;;36.35;22.67;;;;;;;;;;5093629;28;20196;-68
2022/03/29 10:18:41;;;;;;;37.65;26.30;;;;;;;;;;5094533;28;20196;-70
2022/03/29 10:21:09;;;;;;;44.17;24.47;;;;;;;;;;5094520;28;20284;-70
2022/03/29 10:23:37;;;;;;;35.55;23.02;;;;;;;;;;5094220;28;20438;-68
2022/03/29 10:26:05;;;;;;;40.05;24.65;;;;;;;;;;5093871;28;20217;-69
2022/03/29 10:28:33;;;;;;;37.15;24.05;;;;;;;;;;5094613;28;20193;-69
2022/03/29 10:31:01;;;;;;;37.33;23.33;;;;;;;;;;5093847;28;20724;-68
2022/03/29 10:33:30;;;;;;;42.05;24.40;;;;;;;;;;5094251;28;20201;-68
2022/03/29 10:36:08;;;;;;;36.45;24.75;;;;;;;;;;5094068;28;20251;-68
2022/03/29 10:38:53;;;;;;;39.17;24.33;;;;;;;;;;5093876;28;20195;-68
2022/03/29 10:41:39;;;;;;;38.58;24.83;;;;;;;;;;5094317;28;20203;-69
2022/03/29 10:44:10;;;;;;;40.95;24.40;;;;;;;;;;5093951;28;20224;-68
2022/03/29 10:46:40;;;;;;;38.70;23.90;;;;;;;;;;5093705;28;20242;-69
2022/03/29 10:49:18;;;;;;;34.28;23.80;;;;;;;;;;5093705;28;20626;-68
2022/03/29 10:51:45;;;;;;;39.78;24.65;;;;;;;;;;5093573;28;20281;-69
2022/03/29 10:54:27;;;;;;;38.72;24.92;;;;;;;;;;5093964;28;20283;-69
2022/03/29 10:56:58;;;;;;;40.47;24.80;;;;;;;;;;5092112;28;20247;-69
2022/03/29 10:59:27;;;;;;;37.90;24.48;;;;;;;;;;5093964;28;20453;-69
2022/03/29 11:02:11;;;;;;;37.70;24.33;;;;;;;;;;5093435;28;20233;-70
2022/03/29 11:04:39;;;;;;;37.33;23.77;;;;;;;;;;5093595;28;20185;-69
2022/03/29 11:07:10;;;;;;;40.83;26.30;;;;;;;;;;5093454;28;20883;-70
2022/03/29 11:09:44;;;;;;;37.70;24.90;;;;;;;;;;5093297;28;20190;-69
2022/03/29 11:12:33;;;;;;;36.53;25.17;;;;;;;;;;5094251;28;20432;-69
2022/03/29 11:15:02;;;;;;;39.83;23.60;;;;;;;;;;5076454;28;20289;-68
2022/03/29 11:17:40;;;;;;;41.78;26.95;;;;;;;;;;5093482;28;20200;-68
2022/03/29 11:20:26;;;;;;;43.03;25.60;;;;;;;;;;5093189;28;20197;-68
2022/03/29 11:22:53;;;;;;;37.77;24.67;;;;;;;;;;5093774;28;20574;-69
2022/03/29 11:25:23;;;;;;;37.58;24.63;;;;;;;;;;5093662;28;20490;-68
2022/03/29 11:27:50;;;;;;;35.73;21.83;;;;;;;;;;5097714;28;20204;-69
2022/03/29 11:30:19;;;;;;;36.30;25.47;;;;;;;;;;5097398;28;20537;-69
2022/03/29 11:32:47;;;;;;;41.83;26.45;;;;;;;;;;5097477;28;20958;-69
2022/03/29 11:35:16;;;;;;;37.53;25.30;;;;;;;;;;5097391;28;20197;-69
2022/03/29 11:37:45;;;;;;;42.28;25.30;;;;;;;;;;5097418;28;20202;-69
2022/03/29 11:40:13;;;;;;;34.57;25.80;;;;;;;;;;5097370;28;20197;-69
2022/03/29 11:42:44;;;;;;;38.57;24.10;;;;;;;;;;5097036;28;20937;-69
2022/03/29 11:45:12;;;;;;;30.03;22.07;;;;;;;;;;5096680;28;20984;-69
2022/03/29 11:47:42;;;;;;;38.85;25.08;;;;;;;;;;5096935;28;20490;-69
2022/03/29 11:50:09;;;;;;;38.80;24.70;;;;;;;;;;5096853;28;20287;-69
2022/03/29 11:52:38;;;;;;;40.70;25.85;;;;;;;;;;5097209;28;20667;-69
2022/03/29 11:55:16;;;;;;;39.05;23.75;;;;;;;;;;5096662;28;20229;-70
2022/03/29 11:57:44;;;;;;;30.77;22.30;;;;;;;;;;5096821;28;20181;-68
2022/03/29 12:00:23;;;;;;;38.13;23.27;;;;;;;;;;5096605;28;20495;-68
2022/03/29 12:02:52;;;;;;;40.00;24.53;;;;;;;;;;5097006;28;20546;-68
2022/03/29 12:05:23;;;;;;;31.05;22.52;;;;;;;;;;5096810;28;20533;-68
2022/03/29 12:07:56;;;;;;;37.45;24.02;;;;;;;;;;5095552;28;20186;-68
2022/03/29 12:10:27;;;;;;;37.13;23.50;;;;;;;;;;5096330;28;20181;-68
2022/03/29 12:12:55;;;;;;;32.30;20.58;;;;;;;;;;5096516;28;20443;-68
2022/03/29 12:15:22;;;;;;;34.33;23.17;;;;;;;;;;5096378;28;20200;-68
2022/03/29 12:20:37;;;;;;;32.57;20.70;;;;;;;;;;5095581;28;20198;-68
2022/03/29 12:23:15;;;;;;;31.65;21.90;;;;;;;;;;5096065;28;20518;-68
2022/03/29 12:25:43;;;;;;;33.43;22.47;;;;;;;;;;5095458;28;20201;-68
2022/03/29 12:28:10;;;;;;;32.20;20.90;;;;;;;;;;5096354;28;20534;-68
2022/03/29 12:30:38;;;;;;;30.83;21.90;;;;;;;;;;5095961;28;20512;-68
2022/03/29 12:33:07;;;;;;;36.00;22.93;;;;;;;;;;5096123;28;20443;-68
2022/03/29 12:35:34;;;;;;;32.60;24.00;;;;;;;;;;5095499;28;20439;-68
2022/03/29 12:38:05;;;;;;;34.27;21.50;;;;;;;;;;5094808;28;20443;-69
2022/03/29 12:40:32;;;;;;;33.77;23.07;;;;;;;;;;5096022;28;20452;-69
2022/03/29 12:43:03;;;;;;;31.63;21.63;;;;;;;;;;5096899;28;20471;-68
2022/03/29 12:45:30;;;;;;;31.00;21.83;;;;;;;;;;5095631;28;20500;-69
2022/03/29 12:47:58;;;;;;;33.27;22.37;;;;;;;;;;5096521;28;20458;-68
2022/03/29 12:50:28;;;;;;;33.00;23.10;;;;;;;;;;5096180;28;20442;-68
2022/03/29 12:52:57;;;;;;;32.90;23.30;;;;;;;;;;5095649;28;21008;-68
2022/03/29 12:55:24;;;;;;;32.03;23.93;;;;;;;;;;5094962;28;20852;-68
2022/03/29 12:58:00;;;;;;;29.40;21.67;;;;;;;;;;5095809;28;20534;-68
2022/03/29 13:00:27;;;;;;;35.40;23.63;;;;;;;;;;5095557;28;20897;-68
2022/03/29 13:02:54;;;;;;;34.97;24.00;;;;;;;;;;5095605;28;20443;-68
2022/03/29 13:05:23;;;;;;;32.17;21.47;;;;;;;;;;5095180;28;20444;-68
2022/03/29 13:08:01;;;;;;;28.80;21.40;;;;;;;;;;5095541;28;20476;-68
2022/03/29 13:10:32;;;;;;;26.43;20.23;;;;;;;;;;5095586;28;20900;-68
2022/03/29 13:13:02;;;;;;;32.27;23.27;;;;;;;;;;5095611;28;20471;-68
2022/03/29 13:15:36;;;;;;;29.20;19.83;;;;;;;;;;5094533;28;20447;-68
2022/03/29 13:18:04;;;;;;;30.10;20.53;;;;;;;;;;5095618;28;20490;-68
2022/03/29 13:20:35;;;;;;;28.13;20.80;;;;;;;;;;5095104;28;20941;-68
2022/03/29 13:23:04;;;;;;;26.20;21.50;;;;;;;;;;5096391;28;20432;-68
2022/03/29 13:25:35;;;;;;;31.00;19.97;;;;;;;;;;5094662;28;20522;-68
2022/03/29 13:28:02;;;;;;;27.80;20.87;;;;;;;;;;5095161;28;20567;-68
2022/03/29 13:30:30;;;;;;;31.53;23.73;;;;;;;;;;5095291;28;20446;-68
2022/03/29 13:32:58;;;;;;;31.13;20.60;;;;;;;;;;5095046;28;20467;-68
2022/03/29 13:35:25;;;;;;;33.43;20.73;;;;;;;;;;5094404;28;20444;-68
2022/03/29 13:37:53;;;;;;;28.40;20.03;;;;;;;;;;5094597;28;20454;-68
2022/03/29 13:40:22;;;;;;;28.57;19.97;;;;;;;;;;5094900;28;20444;-68
2022/03/29 13:42:49;;;;;;;29.17;20.57;;;;;;;;;;5094718;28;20435;-68
2022/03/29 13:45:17;;;;;;;28.10;20.27;;;;;;;;;;5094509;28;20464;-68
2022/03/29 13:47:44;;;;;;;32.70;20.57;;;;;;;;;;5094531;28;20846;-68
2022/03/29 13:50:11;;;;;;;27.20;20.03;;;;;;;;;;5094634;28;20459;-69
2022/03/29 13:52:38;;;;;;;31.90;20.90;;;;;;;;;;5095352;28;20539;-68
2022/03/29 13:55:07;;;;;;;29.73;20.50;;;;;;;;;;5094266;28;20452;-68
2022/03/29 13:57:36;;;;;;;30.07;21.40;;;;;;;;;;5094420;28;20448;-68
2022/03/29 14:00:05;;;;;;;24.77;19.90;;;;;;;;;;5094198;28;20971;-68
2022/03/29 14:02:33;;;;;;;31.33;21.20;;;;;;;;;;5094434;28;20443;-68
2022/03/29 14:05:00;;;;;;;33.83;21.50;;;;;;;;;;5094323;28;20470;-68
2022/03/29 14:07:28;;;;;;;29.93;20.60;;;;;;;;;;5093975;28;20559;-68
2022/03/29 14:09:55;;;;;;;27.30;19.40;;;;;;;;;;5094186;28;20949;-68
2022/03/29 14:12:23;;;;;;;31.80;21.60;;;;;;;;;;5094309;28;20949;-68
2022/03/29 14:14:51;;;;;;;26.80;21.13;;;;;;;;;;5093681;28;20480;-68
2022/03/29 14:17:19;;;;;;;30.77;21.53;;;;;;;;;;5093493;28;20880;-68
2022/03/29 14:19:50;;;;;;;29.23;21.27;;;;;;;;;;5093594;28;20829;-69
2022/03/29 14:22:17;;;;;;;29.70;20.27;;;;;;;;;;5093926;28;20855;-68
2022/03/29 14:24:45;;;;;;;31.07;20.90;;;;;;;;;;5094166;28;20447;-68
2022/03/29 14:27:14;;;;;;;28.87;19.77;;;;;;;;;;5093645;28;20521;-69
2022/03/29 14:29:41;;;;;;;32.87;20.90;;;;;;;;;;5093663;28;20479;-68
2022/03/29 14:32:10;;;;;;;28.00;19.80;;;;;;;;;;5093880;28;20467;-69
2022/03/29 14:34:37;;;;;;;23.73;18.47;;;;;;;;;;5093444;28;20531;-69
2022/03/29 14:37:05;;;;;;;24.43;18.33;;;;;;;;;;5093432;28;20444;-69